sensor_id;sensor_type;location;lat;lon;timestamp;P1;durP1;ratioP1;P2;durP2;ratioP2
13404;SDS011;6773;51.192;7.024;2022-11-04T00:01:26;2.07;;;1.80;;
13404;SDS011;6773;51.192;7.024;2022-11-04T00:03:52;2.50;;;1.80;;
13404;SDS011;6773;51.192;7.024;2022-11-04T00:06:18;2.07;;;1.80;;
13404;SDS011;6773;51.192;7.024;2022-11-04T00:08:50;3.53;;;1.90;;
13404;SDS011;6773;51.192;7.024;2022-11-04T00:11:17;3.60;;;2.00;;
13404;SDS011;6773;51.192;7.024;2022-11-04T00:14:02;2.60;;;2.13;;
13404;SDS011;6773;51.192;7.024;2022-11-04T00:16:28;1.90;;;1.80;;
13404;SDS011;6773;51.192;7.024;2022-11-04T00:19:12;2.13;;;1.70;;
13404;SDS011;6773;51.192;7.024;2022-11-04T00:21:38;2.10;;;1.70;;
13404;SDS011;6773;51.192;7.024;2022-11-04T00:24:23;2.00;;;1.80;;
13404;SDS011;6773;51.192;7.024;2022-11-04T00:27:07;1.70;;;1.60;;
13404;SDS011;6773;51.192;7.024;2022-11-04T00:29:52;2.13;;;1.70;;
13404;SDS011;6773;51.192;7.024;2022-11-04T00:32:19;1.90;;;1.70;;
13404;SDS011;6773;51.192;7.024;2022-11-04T00:35:03;2.10;;;1.70;;
13404;SDS011;6773;51.192;7.024;2022-11-04T00:37:30;1.93;;;1.83;;
13404;SDS011;6773;51.192;7.024;2022-11-04T00:39:56;1.90;;;1.57;;
13404;SDS011;6773;51.192;7.024;2022-11-04T00:42:21;4.43;;;1.90;;
13404;SDS011;6773;51.192;7.024;2022-11-04T00:44:47;1.70;;;1.60;;
13404;SDS011;6773;51.192;7.024;2022-11-04T00:47:13;2.23;;;2.03;;
13404;SDS011;6773;51.192;7.024;2022-11-04T00:49:39;2.17;;;2.03;;
13404;SDS011;6773;51.192;7.024;2022-11-04T00:52:05;4.27;;;2.83;;
13404;SDS011;6773;51.192;7.024;2022-11-04T00:54:30;2.07;;;1.97;;
13404;SDS011;6773;51.192;7.024;2022-11-04T00:56:56;2.17;;;2.07;;
13404;SDS011;6773;51.192;7.024;2022-11-04T00:59:22;2.60;;;2.40;;
13404;SDS011;6773;51.192;7.024;2022-11-04T01:01:47;2.30;;;2.10;;
13404;SDS011;6773;51.192;7.024;2022-11-04T01:04:13;2.33;;;2.13;;
13404;SDS011;6773;51.192;7.024;2022-11-04T01:06:39;7.37;;;2.40;;
13404;SDS011;6773;51.192;7.024;2022-11-04T01:09:06;2.73;;;2.50;;
13404;SDS011;6773;51.192;7.024;2022-11-04T01:11:33;3.83;;;3.17;;
13404;SDS011;6773;51.192;7.024;2022-11-04T01:13:59;4.63;;;3.20;;
13404;SDS011;6773;51.192;7.024;2022-11-04T01:16:26;3.47;;;3.03;;
13404;SDS011;6773;51.192;7.024;2022-11-04T01:18:52;5.13;;;3.10;;
13404;SDS011;6773;51.192;7.024;2022-11-04T01:21:18;3.30;;;2.97;;
13404;SDS011;6773;51.192;7.024;2022-11-04T01:23:44;3.97;;;3.57;;
13404;SDS011;6773;51.192;7.024;2022-11-04T01:26:12;3.43;;;3.03;;
13404;SDS011;6773;51.192;7.024;2022-11-04T01:28:38;6.03;;;3.80;;
13404;SDS011;6773;51.192;7.024;2022-11-04T01:31:05;3.80;;;3.50;;
13404;SDS011;6773;51.192;7.024;2022-11-04T01:33:35;4.30;;;3.90;;
13404;SDS011;6773;51.192;7.024;2022-11-04T01:36:01;4.80;;;4.20;;
13404;SDS011;6773;51.192;7.024;2022-11-04T01:38:28;4.73;;;4.13;;
13404;SDS011;6773;51.192;7.024;2022-11-04T01:40:54;4.80;;;3.70;;
13404;SDS011;6773;51.192;7.024;2022-11-04T01:43:20;4.23;;;3.83;;
13404;SDS011;6773;51.192;7.024;2022-11-04T01:45:54;4.20;;;3.80;;
13404;SDS011;6773;51.192;7.024;2022-11-04T01:48:28;3.50;;;3.20;;
13404;SDS011;6773;51.192;7.024;2022-11-04T01:50:57;4.13;;;3.50;;
13404;SDS011;6773;51.192;7.024;2022-11-04T01:53:25;4.37;;;3.97;;
13404;SDS011;6773;51.192;7.024;2022-11-04T01:55:55;3.60;;;3.30;;
13404;SDS011;6773;51.192;7.024;2022-11-04T01:58:23;3.60;;;3.30;;
13404;SDS011;6773;51.192;7.024;2022-11-04T02:00:52;4.27;;;3.60;;
13404;SDS011;6773;51.192;7.024;2022-11-04T02:03:22;5.10;;;3.73;;
13404;SDS011;6773;51.192;7.024;2022-11-04T02:06:00;4.77;;;3.80;;
13404;SDS011;6773;51.192;7.024;2022-11-04T02:08:27;5.73;;;3.90;;
13404;SDS011;6773;51.192;7.024;2022-11-04T02:10:56;4.57;;;3.27;;
13404;SDS011;6773;51.192;7.024;2022-11-04T02:13:24;3.97;;;3.50;;
13404;SDS011;6773;51.192;7.024;2022-11-04T02:30:02;8.00;;;3.03;;
13404;SDS011;6773;51.192;7.024;2022-11-04T02:42:55;6.20;;;2.70;;
13404;SDS011;6773;51.192;7.024;2022-11-04T02:45:23;4.00;;;2.93;;
13404;SDS011;6773;51.192;7.024;2022-11-04T02:48:11;5.50;;;2.60;;
13404;SDS011;6773;51.192;7.024;2022-11-04T02:53:34;2.83;;;2.13;;
13404;SDS011;6773;51.192;7.024;2022-11-04T02:56:03;4.30;;;2.40;;
13404;SDS011;6773;51.192;7.024;2022-11-04T02:58:32;3.27;;;2.50;;
13404;SDS011;6773;51.192;7.024;2022-11-04T03:01:02;2.57;;;2.33;;
13404;SDS011;6773;51.192;7.024;2022-11-04T03:03:33;4.33;;;2.00;;
13404;SDS011;6773;51.192;7.024;2022-11-04T03:06:04;3.73;;;2.20;;
13404;SDS011;6773;51.192;7.024;2022-11-04T03:08:34;8.47;;;2.40;;
13404;SDS011;6773;51.192;7.024;2022-11-04T03:11:10;4.40;;;2.50;;
13404;SDS011;6773;51.192;7.024;2022-11-04T03:13:56;3.07;;;2.00;;
13404;SDS011;6773;51.192;7.024;2022-11-04T03:16:27;3.40;;;2.03;;
13404;SDS011;6773;51.192;7.024;2022-11-04T03:21:42;4.97;;;2.13;;
13404;SDS011;6773;51.192;7.024;2022-11-04T03:24:14;4.70;;;2.20;;
13404;SDS011;6773;51.192;7.024;2022-11-04T03:26:41;3.70;;;2.30;;
13404;SDS011;6773;51.192;7.024;2022-11-04T03:29:25;4.43;;;2.13;;
13404;SDS011;6773;51.192;7.024;2022-11-04T03:32:02;4.60;;;2.00;;
13404;SDS011;6773;51.192;7.024;2022-11-04T03:34:46;4.17;;;1.90;;
13404;SDS011;6773;51.192;7.024;2022-11-04T03:37:12;6.77;;;2.30;;
13404;SDS011;6773;51.192;7.024;2022-11-04T03:39:38;3.73;;;2.00;;
13404;SDS011;6773;51.192;7.024;2022-11-04T03:42:09;3.10;;;2.10;;
13404;SDS011;6773;51.192;7.024;2022-11-04T03:44:49;5.27;;;2.57;;
13404;SDS011;6773;51.192;7.024;2022-11-04T03:47:22;5.87;;;2.83;;
13404;SDS011;6773;51.192;7.024;2022-11-04T03:49:50;4.43;;;1.70;;
13404;SDS011;6773;51.192;7.024;2022-11-04T03:52:23;4.80;;;2.40;;
13404;SDS011;6773;51.192;7.024;2022-11-04T03:54:49;7.07;;;2.20;;
13404;SDS011;6773;51.192;7.024;2022-11-04T03:57:28;2.60;;;1.77;;
13404;SDS011;6773;51.192;7.024;2022-11-04T04:11:18;5.87;;;2.10;;
13404;SDS011;6773;51.192;7.024;2022-11-04T04:14:05;5.03;;;1.90;;
13404;SDS011;6773;51.192;7.024;2022-11-04T04:16:43;4.97;;;1.90;;
13404;SDS011;6773;51.192;7.024;2022-11-04T04:19:12;5.57;;;1.90;;
13404;SDS011;6773;51.192;7.024;2022-11-04T04:21:48;6.70;;;1.83;;
13404;SDS011;6773;51.192;7.024;2022-11-04T04:24:19;3.57;;;2.37;;
13404;SDS011;6773;51.192;7.024;2022-11-04T04:27:08;2.37;;;1.60;;
13404;SDS011;6773;51.192;7.024;2022-11-04T04:29:53;4.27;;;1.80;;
13404;SDS011;6773;51.192;7.024;2022-11-04T04:32:20;7.50;;;2.27;;
13404;SDS011;6773;51.192;7.024;2022-11-04T04:34:50;4.77;;;2.40;;
13404;SDS011;6773;51.192;7.024;2022-11-04T04:37:36;7.57;;;2.20;;
13404;SDS011;6773;51.192;7.024;2022-11-04T04:40:04;7.20;;;1.97;;
13404;SDS011;6773;51.192;7.024;2022-11-04T04:42:51;6.30;;;2.10;;
13404;SDS011;6773;51.192;7.024;2022-11-04T04:45:36;5.23;;;2.10;;
13404;SDS011;6773;51.192;7.024;2022-11-04T04:48:05;2.10;;;1.90;;
13404;SDS011;6773;51.192;7.024;2022-11-04T04:50:34;3.13;;;2.00;;
13404;SDS011;6773;51.192;7.024;2022-11-04T04:53:01;5.73;;;2.20;;
13404;SDS011;6773;51.192;7.024;2022-11-04T04:55:28;3.33;;;2.07;;
13404;SDS011;6773;51.192;7.024;2022-11-04T04:57:55;6.50;;;1.90;;
13404;SDS011;6773;51.192;7.024;2022-11-04T05:00:21;8.80;;;2.40;;
13404;SDS011;6773;51.192;7.024;2022-11-04T05:02:48;6.40;;;1.93;;
13404;SDS011;6773;51.192;7.024;2022-11-04T05:05:14;7.43;;;2.57;;
13404;SDS011;6773;51.192;7.024;2022-11-04T05:07:40;8.27;;;2.20;;
13404;SDS011;6773;51.192;7.024;2022-11-04T05:10:06;11.10;;;2.47;;
13404;SDS011;6773;51.192;7.024;2022-11-04T05:12:35;7.50;;;2.30;;
13404;SDS011;6773;51.192;7.024;2022-11-04T05:15:19;6.77;;;2.20;;
13404;SDS011;6773;51.192;7.024;2022-11-04T05:17:45;6.70;;;2.17;;
13404;SDS011;6773;51.192;7.024;2022-11-04T05:20:11;6.30;;;2.30;;
13404;SDS011;6773;51.192;7.024;2022-11-04T05:22:37;21.63;;;3.43;;
13404;SDS011;6773;51.192;7.024;2022-11-04T05:25:03;2.60;;;2.03;;
13404;SDS011;6773;51.192;7.024;2022-11-04T05:27:29;6.77;;;2.70;;
13404;SDS011;6773;51.192;7.024;2022-11-04T05:29:55;5.80;;;2.30;;
13404;SDS011;6773;51.192;7.024;2022-11-04T05:32:20;4.70;;;2.23;;
13404;SDS011;6773;51.192;7.024;2022-11-04T05:34:46;4.60;;;2.37;;
13404;SDS011;6773;51.192;7.024;2022-11-04T05:37:12;4.40;;;2.40;;
13404;SDS011;6773;51.192;7.024;2022-11-04T05:39:37;2.77;;;2.17;;
13404;SDS011;6773;51.192;7.024;2022-11-04T05:42:03;8.03;;;2.57;;
13404;SDS011;6773;51.192;7.024;2022-11-04T05:44:28;5.43;;;2.60;;
13404;SDS011;6773;51.192;7.024;2022-11-04T05:46:54;6.00;;;2.50;;
13404;SDS011;6773;51.192;7.024;2022-11-04T05:49:20;4.07;;;2.60;;
13404;SDS011;6773;51.192;7.024;2022-11-04T05:51:45;11.53;;;3.00;;
13404;SDS011;6773;51.192;7.024;2022-11-04T05:54:11;5.97;;;3.03;;
13404;SDS011;6773;51.192;7.024;2022-11-04T05:56:37;5.03;;;2.37;;
13404;SDS011;6773;51.192;7.024;2022-11-04T05:59:02;4.40;;;2.60;;
13404;SDS011;6773;51.192;7.024;2022-11-04T06:04:02;5.77;;;3.00;;
13404;SDS011;6773;51.192;7.024;2022-11-04T06:06:30;6.87;;;2.50;;
13404;SDS011;6773;51.192;7.024;2022-11-04T06:08:57;5.80;;;2.57;;
13404;SDS011;6773;51.192;7.024;2022-11-04T06:11:24;5.60;;;2.70;;
13404;SDS011;6773;51.192;7.024;2022-11-04T06:13:52;7.23;;;2.83;;
13404;SDS011;6773;51.192;7.024;2022-11-04T06:16:18;6.33;;;3.20;;
13404;SDS011;6773;51.192;7.024;2022-11-04T06:18:44;5.23;;;2.50;;
13404;SDS011;6773;51.192;7.024;2022-11-04T06:23:41;3.73;;;2.57;;
13404;SDS011;6773;51.192;7.024;2022-11-04T06:26:08;5.47;;;3.00;;
13404;SDS011;6773;51.192;7.024;2022-11-04T06:28:34;6.07;;;3.03;;
13404;SDS011;6773;51.192;7.024;2022-11-04T06:31:01;7.00;;;2.50;;
13404;SDS011;6773;51.192;7.024;2022-11-04T06:33:28;6.43;;;2.80;;
13404;SDS011;6773;51.192;7.024;2022-11-04T06:36:01;5.97;;;2.80;;
13404;SDS011;6773;51.192;7.024;2022-11-04T06:38:28;5.77;;;2.77;;
13404;SDS011;6773;51.192;7.024;2022-11-04T06:40:58;7.70;;;3.10;;
13404;SDS011;6773;51.192;7.024;2022-11-04T06:43:24;5.83;;;2.60;;
13404;SDS011;6773;51.192;7.024;2022-11-04T06:45:53;5.00;;;2.90;;
13404;SDS011;6773;51.192;7.024;2022-11-04T06:48:19;4.73;;;3.03;;
13404;SDS011;6773;51.192;7.024;2022-11-04T06:50:45;4.90;;;3.27;;
13404;SDS011;6773;51.192;7.024;2022-11-04T06:53:10;4.60;;;2.80;;
13404;SDS011;6773;51.192;7.024;2022-11-04T06:55:36;5.33;;;2.77;;
13404;SDS011;6773;51.192;7.024;2022-11-04T06:58:02;5.33;;;2.70;;
13404;SDS011;6773;51.192;7.024;2022-11-04T07:00:28;3.77;;;2.70;;
13404;SDS011;6773;51.192;7.024;2022-11-04T07:02:53;5.53;;;2.53;;
13404;SDS011;6773;51.192;7.024;2022-11-04T07:05:19;7.90;;;2.77;;
13404;SDS011;6773;51.192;7.024;2022-11-04T07:07:45;4.00;;;2.70;;
13404;SDS011;6773;51.192;7.024;2022-11-04T07:10:10;4.63;;;2.70;;
13404;SDS011;6773;51.192;7.024;2022-11-04T07:12:36;5.10;;;2.20;;
13404;SDS011;6773;51.192;7.024;2022-11-04T07:15:02;5.40;;;2.10;;
13404;SDS011;6773;51.192;7.024;2022-11-04T07:17:28;4.13;;;2.30;;
13404;SDS011;6773;51.192;7.024;2022-11-04T07:19:53;3.83;;;2.10;;
13404;SDS011;6773;51.192;7.024;2022-11-04T07:22:19;5.00;;;2.30;;
13404;SDS011;6773;51.192;7.024;2022-11-04T07:24:45;6.60;;;2.90;;
13404;SDS011;6773;51.192;7.024;2022-11-04T07:27:10;6.03;;;2.40;;
13404;SDS011;6773;51.192;7.024;2022-11-04T07:29:36;4.30;;;2.10;;
13404;SDS011;6773;51.192;7.024;2022-11-04T07:32:02;4.03;;;2.20;;
13404;SDS011;6773;51.192;7.024;2022-11-04T07:34:27;4.13;;;2.37;;
13404;SDS011;6773;51.192;7.024;2022-11-04T07:36:53;8.37;;;2.60;;
13404;SDS011;6773;51.192;7.024;2022-11-04T07:39:19;8.20;;;3.00;;
13404;SDS011;6773;51.192;7.024;2022-11-04T07:41:45;7.43;;;2.27;;
13404;SDS011;6773;51.192;7.024;2022-11-04T07:44:11;4.50;;;2.40;;
13404;SDS011;6773;51.192;7.024;2022-11-04T07:46:37;5.67;;;2.53;;
13404;SDS011;6773;51.192;7.024;2022-11-04T07:49:03;3.37;;;2.13;;
13404;SDS011;6773;51.192;7.024;2022-11-04T07:51:29;4.87;;;2.23;;
13404;SDS011;6773;51.192;7.024;2022-11-04T07:53:58;6.20;;;2.27;;
13404;SDS011;6773;51.192;7.024;2022-11-04T07:56:24;8.60;;;2.53;;
13404;SDS011;6773;51.192;7.024;2022-11-04T07:58:49;5.60;;;2.67;;
13404;SDS011;6773;51.192;7.024;2022-11-04T08:01:17;9.07;;;2.37;;
13404;SDS011;6773;51.192;7.024;2022-11-04T08:03:44;3.57;;;2.13;;
13404;SDS011;6773;51.192;7.024;2022-11-04T08:06:13;3.03;;;2.00;;
13404;SDS011;6773;51.192;7.024;2022-11-04T08:08:40;4.10;;;2.37;;
13404;SDS011;6773;51.192;7.024;2022-11-04T08:11:11;6.57;;;3.10;;
13404;SDS011;6773;51.192;7.024;2022-11-04T08:13:42;7.70;;;2.80;;
13404;SDS011;6773;51.192;7.024;2022-11-04T08:16:09;5.53;;;2.33;;
13404;SDS011;6773;51.192;7.024;2022-11-04T08:18:38;3.63;;;2.17;;
13404;SDS011;6773;51.192;7.024;2022-11-04T08:21:04;7.13;;;2.80;;
13404;SDS011;6773;51.192;7.024;2022-11-04T08:23:31;6.73;;;2.20;;
13404;SDS011;6773;51.192;7.024;2022-11-04T08:25:58;4.57;;;2.70;;
13404;SDS011;6773;51.192;7.024;2022-11-04T08:28:24;5.50;;;2.40;;
13404;SDS011;6773;51.192;7.024;2022-11-04T08:31:00;4.87;;;2.20;;
13404;SDS011;6773;51.192;7.024;2022-11-04T08:33:29;5.63;;;2.23;;
13404;SDS011;6773;51.192;7.024;2022-11-04T08:35:57;5.37;;;1.93;;
13404;SDS011;6773;51.192;7.024;2022-11-04T08:38:25;3.50;;;2.13;;
13404;SDS011;6773;51.192;7.024;2022-11-04T08:40:55;7.93;;;2.77;;
13404;SDS011;6773;51.192;7.024;2022-11-04T08:43:21;7.73;;;2.50;;
13404;SDS011;6773;51.192;7.024;2022-11-04T08:45:47;10.40;;;2.67;;
13404;SDS011;6773;51.192;7.024;2022-11-04T08:48:13;4.23;;;2.60;;
13404;SDS011;6773;51.192;7.024;2022-11-04T08:50:40;3.70;;;2.40;;
13404;SDS011;6773;51.192;7.024;2022-11-04T08:53:06;8.13;;;2.60;;
13404;SDS011;6773;51.192;7.024;2022-11-04T08:55:32;6.07;;;2.47;;
13404;SDS011;6773;51.192;7.024;2022-11-04T08:57:58;7.13;;;3.67;;
13404;SDS011;6773;51.192;7.024;2022-11-04T09:00:24;6.53;;;2.83;;
13404;SDS011;6773;51.192;7.024;2022-11-04T09:02:50;9.33;;;3.20;;
13404;SDS011;6773;51.192;7.024;2022-11-04T09:05:16;7.20;;;3.03;;
13404;SDS011;6773;51.192;7.024;2022-11-04T09:07:42;4.27;;;2.90;;
13404;SDS011;6773;51.192;7.024;2022-11-04T09:10:09;8.70;;;3.10;;
13404;SDS011;6773;51.192;7.024;2022-11-04T09:12:35;9.83;;;3.00;;
13404;SDS011;6773;51.192;7.024;2022-11-04T09:15:02;7.57;;;3.23;;
13404;SDS011;6773;51.192;7.024;2022-11-04T09:17:29;4.87;;;2.80;;
13404;SDS011;6773;51.192;7.024;2022-11-04T09:19:56;8.27;;;2.97;;
13404;SDS011;6773;51.192;7.024;2022-11-04T09:22:21;5.57;;;3.20;;
13404;SDS011;6773;51.192;7.024;2022-11-04T09:24:47;3.63;;;2.70;;
13404;SDS011;6773;51.192;7.024;2022-11-04T09:27:12;4.13;;;2.53;;
13404;SDS011;6773;51.192;7.024;2022-11-04T09:29:38;6.67;;;2.67;;
13404;SDS011;6773;51.192;7.024;2022-11-04T09:32:05;8.50;;;3.20;;
13404;SDS011;6773;51.192;7.024;2022-11-04T09:34:31;6.23;;;2.90;;
13404;SDS011;6773;51.192;7.024;2022-11-04T09:36:57;4.63;;;3.00;;
13404;SDS011;6773;51.192;7.024;2022-11-04T09:39:23;8.47;;;3.40;;
13404;SDS011;6773;51.192;7.024;2022-11-04T09:45:01;9.50;;;2.80;;
13404;SDS011;6773;51.192;7.024;2022-11-04T09:47:33;6.87;;;2.60;;
13404;SDS011;6773;51.192;7.024;2022-11-04T09:50:00;8.10;;;2.60;;
13404;SDS011;6773;51.192;7.024;2022-11-04T09:52:29;5.73;;;3.40;;
13404;SDS011;6773;51.192;7.024;2022-11-04T09:57:24;8.17;;;2.83;;
13404;SDS011;6773;51.192;7.024;2022-11-04T09:59:50;4.13;;;2.43;;
13404;SDS011;6773;51.192;7.024;2022-11-04T10:13:13;6.90;;;2.20;;
13404;SDS011;6773;51.192;7.024;2022-11-04T10:18:26;5.27;;;2.10;;
13404;SDS011;6773;51.192;7.024;2022-11-04T10:21:14;6.87;;;1.93;;
13404;SDS011;6773;51.192;7.024;2022-11-04T10:26:45;7.97;;;2.30;;
13404;SDS011;6773;51.192;7.024;2022-11-04T10:29:19;6.30;;;2.20;;
13404;SDS011;6773;51.192;7.024;2022-11-04T10:31:53;5.43;;;3.03;;
13404;SDS011;6773;51.192;7.024;2022-11-04T10:36:54;6.73;;;2.43;;
13404;SDS011;6773;51.192;7.024;2022-11-04T10:39:24;4.17;;;1.97;;
13404;SDS011;6773;51.192;7.024;2022-11-04T10:41:52;7.67;;;2.37;;
13404;SDS011;6773;51.192;7.024;2022-11-04T10:44:23;3.37;;;2.30;;
13404;SDS011;6773;51.192;7.024;2022-11-04T10:47:00;5.90;;;2.37;;
13404;SDS011;6773;51.192;7.024;2022-11-04T10:52:23;6.63;;;2.33;;
13404;SDS011;6773;51.192;7.024;2022-11-04T10:54:49;4.20;;;2.43;;
13404;SDS011;6773;51.192;7.024;2022-11-04T10:57:19;8.10;;;3.10;;
13404;SDS011;6773;51.192;7.024;2022-11-04T10:59:50;4.60;;;2.53;;
13404;SDS011;6773;51.192;7.024;2022-11-04T11:05:14;6.80;;;2.30;;
13404;SDS011;6773;51.192;7.024;2022-11-04T11:07:47;3.73;;;1.90;;
13404;SDS011;6773;51.192;7.024;2022-11-04T11:10:52;4.27;;;2.33;;
13404;SDS011;6773;51.192;7.024;2022-11-04T11:13:26;5.20;;;2.10;;
13404;SDS011;6773;51.192;7.024;2022-11-04T11:16:17;5.57;;;2.10;;
13404;SDS011;6773;51.192;7.024;2022-11-04T11:18:44;5.20;;;2.20;;
13404;SDS011;6773;51.192;7.024;2022-11-04T11:21:42;7.80;;;2.97;;
13404;SDS011;6773;51.192;7.024;2022-11-04T11:24:13;5.80;;;2.40;;
13404;SDS011;6773;51.192;7.024;2022-11-04T11:26:42;4.03;;;2.10;;
13404;SDS011;6773;51.192;7.024;2022-11-04T11:29:14;4.30;;;2.10;;
13404;SDS011;6773;51.192;7.024;2022-11-04T11:31:45;6.97;;;2.53;;
13404;SDS011;6773;51.192;7.024;2022-11-04T11:34:31;6.07;;;2.37;;
13404;SDS011;6773;51.192;7.024;2022-11-04T11:37:01;4.47;;;2.20;;
13404;SDS011;6773;51.192;7.024;2022-11-04T11:39:29;4.93;;;2.30;;
13404;SDS011;6773;51.192;7.024;2022-11-04T11:41:58;6.83;;;2.37;;
13404;SDS011;6773;51.192;7.024;2022-11-04T11:47:00;4.17;;;2.80;;
13404;SDS011;6773;51.192;7.024;2022-11-04T11:49:32;5.50;;;2.50;;
13404;SDS011;6773;51.192;7.024;2022-11-04T11:52:16;8.70;;;2.60;;
13404;SDS011;6773;51.192;7.024;2022-11-04T11:54:57;8.77;;;2.50;;
13404;SDS011;6773;51.192;7.024;2022-11-04T12:00:08;6.70;;;2.37;;
13404;SDS011;6773;51.192;7.024;2022-11-04T12:05:13;6.93;;;2.13;;
13404;SDS011;6773;51.192;7.024;2022-11-04T12:07:43;7.67;;;2.23;;
13404;SDS011;6773;51.192;7.024;2022-11-04T12:10:29;3.63;;;2.27;;
13404;SDS011;6773;51.192;7.024;2022-11-04T12:20:58;4.47;;;2.30;;
13404;SDS011;6773;51.192;7.024;2022-11-04T12:23:52;5.90;;;2.87;;
13404;SDS011;6773;51.192;7.024;2022-11-04T12:27:00;3.27;;;2.20;;
13404;SDS011;6773;51.192;7.024;2022-11-04T12:40:38;8.27;;;2.37;;
13404;SDS011;6773;51.192;7.024;2022-11-04T12:46:10;5.00;;;2.17;;
13404;SDS011;6773;51.192;7.024;2022-11-04T12:54:20;5.67;;;2.90;;
13404;SDS011;6773;51.192;7.024;2022-11-04T13:00:14;7.77;;;3.10;;
13404;SDS011;6773;51.192;7.024;2022-11-04T13:08:04;4.70;;;2.60;;
13404;SDS011;6773;51.192;7.024;2022-11-04T13:13:46;7.83;;;2.87;;
13404;SDS011;6773;51.192;7.024;2022-11-04T13:16:34;3.30;;;2.70;;
13404;SDS011;6773;51.192;7.024;2022-11-04T13:19:04;4.50;;;2.40;;
13404;SDS011;6773;51.192;7.024;2022-11-04T13:21:40;5.17;;;2.30;;
13404;SDS011;6773;51.192;7.024;2022-11-04T13:24:16;7.03;;;2.93;;
13404;SDS011;6773;51.192;7.024;2022-11-04T13:26:44;6.47;;;2.70;;
13404;SDS011;6773;51.192;7.024;2022-11-04T13:29:14;6.60;;;2.75;;
13404;SDS011;6773;51.192;7.024;2022-11-04T13:32:03;4.93;;;2.30;;
13404;SDS011;6773;51.192;7.024;2022-11-04T13:34:39;4.68;;;2.13;;
13404;SDS011;6773;51.192;7.024;2022-11-04T13:37:23;5.90;;;2.23;;
13404;SDS011;6773;51.192;7.024;2022-11-04T13:40:12;5.40;;;2.17;;
13404;SDS011;6773;51.192;7.024;2022-11-04T13:45:47;5.00;;;2.27;;
13404;SDS011;6773;51.192;7.024;2022-11-04T13:48:17;7.73;;;1.93;;
13404;SDS011;6773;51.192;7.024;2022-11-04T13:50:46;7.00;;;1.80;;
13404;SDS011;6773;51.192;7.024;2022-11-04T13:56:26;3.40;;;1.70;;
13404;SDS011;6773;51.192;7.024;2022-11-04T14:01:43;3.97;;;1.97;;
13404;SDS011;6773;51.192;7.024;2022-11-04T14:07:31;2.97;;;2.00;;
13404;SDS011;6773;51.192;7.024;2022-11-04T14:09:35;6.70;;;2.40;;
13404;SDS011;6773;51.192;7.024;2022-11-04T14:14:45;4.40;;;2.13;;
13404;SDS011;6773;51.192;7.024;2022-11-04T14:22:53;6.63;;;2.97;;
13404;SDS011;6773;51.192;7.024;2022-11-04T14:25:40;6.63;;;2.47;;
13404;SDS011;6773;51.192;7.024;2022-11-04T14:28:25;6.00;;;2.50;;
13404;SDS011;6773;51.192;7.024;2022-11-04T14:30:54;5.10;;;2.50;;
13404;SDS011;6773;51.192;7.024;2022-11-04T14:49:46;8.63;;;3.00;;
13404;SDS011;6773;51.192;7.024;2022-11-04T14:52:27;5.67;;;2.97;;
13404;SDS011;6773;51.192;7.024;2022-11-04T14:55:24;5.13;;;2.83;;
13404;SDS011;6773;51.192;7.024;2022-11-04T14:57:54;5.50;;;3.10;;
13404;SDS011;6773;51.192;7.024;2022-11-04T15:00:29;5.17;;;3.33;;
13404;SDS011;6773;51.192;7.024;2022-11-04T15:05:34;8.47;;;3.37;;
13404;SDS011;6773;51.192;7.024;2022-11-04T15:08:47;3.63;;;3.00;;
13404;SDS011;6773;51.192;7.024;2022-11-04T15:13:38;8.10;;;3.07;;
13404;SDS011;6773;51.192;7.024;2022-11-04T15:16:17;4.37;;;2.87;;
13404;SDS011;6773;51.192;7.024;2022-11-04T15:18:45;4.67;;;3.10;;
13404;SDS011;6773;51.192;7.024;2022-11-04T15:21:12;5.23;;;3.60;;
13404;SDS011;6773;51.192;7.024;2022-11-04T15:23:39;7.60;;;3.83;;
13404;SDS011;6773;51.192;7.024;2022-11-04T15:26:26;6.30;;;3.37;;
13404;SDS011;6773;51.192;7.024;2022-11-04T15:29:01;8.13;;;3.67;;
13404;SDS011;6773;51.192;7.024;2022-11-04T15:31:33;6.00;;;2.87;;
13404;SDS011;6773;51.192;7.024;2022-11-04T15:34:01;6.07;;;3.27;;
13404;SDS011;6773;51.192;7.024;2022-11-04T15:36:34;5.77;;;3.37;;
13404;SDS011;6773;51.192;7.024;2022-11-04T15:39:12;6.47;;;2.90;;
13404;SDS011;6773;51.192;7.024;2022-11-04T15:41:44;7.97;;;3.20;;
13404;SDS011;6773;51.192;7.024;2022-11-04T15:44:30;8.07;;;3.70;;
13404;SDS011;6773;51.192;7.024;2022-11-04T15:46:59;6.97;;;3.30;;
13404;SDS011;6773;51.192;7.024;2022-11-04T15:49:27;10.00;;;3.83;;
13404;SDS011;6773;51.192;7.024;2022-11-04T15:51:58;9.13;;;3.77;;
13404;SDS011;6773;51.192;7.024;2022-11-04T15:54:37;9.73;;;4.03;;
13404;SDS011;6773;51.192;7.024;2022-11-04T15:57:12;6.07;;;3.60;;
13404;SDS011;6773;51.192;7.024;2022-11-04T15:59:51;9.53;;;3.70;;
13404;SDS011;6773;51.192;7.024;2022-11-04T16:02:22;7.93;;;3.30;;
13404;SDS011;6773;51.192;7.024;2022-11-04T16:05:02;5.77;;;3.60;;
13404;SDS011;6773;51.192;7.024;2022-11-04T16:07:40;10.07;;;4.07;;
13404;SDS011;6773;51.192;7.024;2022-11-04T16:12:57;11.93;;;5.30;;
13404;SDS011;6773;51.192;7.024;2022-11-04T16:15:38;8.90;;;5.30;;
13404;SDS011;6773;51.192;7.024;2022-11-04T16:18:31;14.93;;;5.20;;
13404;SDS011;6773;51.192;7.024;2022-11-04T16:21:21;9.37;;;4.80;;
13404;SDS011;6773;51.192;7.024;2022-11-04T16:24:02;9.73;;;5.20;;
13404;SDS011;6773;51.192;7.024;2022-11-04T16:26:35;9.97;;;5.00;;
13404;SDS011;6773;51.192;7.024;2022-11-04T16:29:12;6.73;;;4.47;;
13404;SDS011;6773;51.192;7.024;2022-11-04T16:31:48;11.00;;;5.23;;
13404;SDS011;6773;51.192;7.024;2022-11-04T16:34:49;8.10;;;4.90;;
13404;SDS011;6773;51.192;7.024;2022-11-04T16:37:16;10.40;;;5.20;;
13404;SDS011;6773;51.192;7.024;2022-11-04T16:39:42;10.47;;;5.00;;
13404;SDS011;6773;51.192;7.024;2022-11-04T16:42:10;10.80;;;4.70;;
13404;SDS011;6773;51.192;7.024;2022-11-04T16:44:38;7.43;;;4.77;;
13404;SDS011;6773;51.192;7.024;2022-11-04T16:47:04;8.87;;;4.97;;
13404;SDS011;6773;51.192;7.024;2022-11-04T16:49:30;6.63;;;4.90;;
13404;SDS011;6773;51.192;7.024;2022-11-04T16:52:00;12.07;;;5.73;;
13404;SDS011;6773;51.192;7.024;2022-11-04T16:54:27;11.27;;;6.37;;
13404;SDS011;6773;51.192;7.024;2022-11-04T16:56:53;9.63;;;6.03;;
13404;SDS011;6773;51.192;7.024;2022-11-04T16:59:19;9.47;;;6.17;;
13404;SDS011;6773;51.192;7.024;2022-11-04T17:01:45;11.07;;;6.70;;
13404;SDS011;6773;51.192;7.024;2022-11-04T17:04:11;10.03;;;6.90;;
13404;SDS011;6773;51.192;7.024;2022-11-04T17:06:37;9.47;;;6.83;;
13404;SDS011;6773;51.192;7.024;2022-11-04T17:09:05;12.93;;;7.07;;
13404;SDS011;6773;51.192;7.024;2022-11-04T17:11:41;9.73;;;5.80;;
13404;SDS011;6773;51.192;7.024;2022-11-04T17:14:07;9.50;;;6.50;;
13404;SDS011;6773;51.192;7.024;2022-11-04T17:16:33;10.27;;;6.13;;
13404;SDS011;6773;51.192;7.024;2022-11-04T17:18:58;7.40;;;6.23;;
13404;SDS011;6773;51.192;7.024;2022-11-04T17:21:24;8.10;;;6.10;;
13404;SDS011;6773;51.192;7.024;2022-11-04T17:23:50;9.60;;;6.17;;
13404;SDS011;6773;51.192;7.024;2022-11-04T17:26:16;11.73;;;6.97;;
13404;SDS011;6773;51.192;7.024;2022-11-04T17:28:42;10.17;;;6.27;;
13404;SDS011;6773;51.192;7.024;2022-11-04T17:31:10;8.83;;;6.53;;
13404;SDS011;6773;51.192;7.024;2022-11-04T17:33:42;11.37;;;8.03;;
13404;SDS011;6773;51.192;7.024;2022-11-04T17:36:09;9.93;;;6.77;;
13404;SDS011;6773;51.192;7.024;2022-11-04T17:38:39;9.33;;;7.27;;
13404;SDS011;6773;51.192;7.024;2022-11-04T17:41:05;8.47;;;6.73;;
13404;SDS011;6773;51.192;7.024;2022-11-04T17:43:49;8.63;;;6.67;;
13404;SDS011;6773;51.192;7.024;2022-11-04T17:46:24;10.97;;;7.27;;
13404;SDS011;6773;51.192;7.024;2022-11-04T17:49:15;12.43;;;8.10;;
13404;SDS011;6773;51.192;7.024;2022-11-04T17:51:43;11.67;;;7.50;;
13404;SDS011;6773;51.192;7.024;2022-11-04T17:54:14;13.40;;;8.17;;
13404;SDS011;6773;51.192;7.024;2022-11-04T17:56:40;10.53;;;7.47;;
13404;SDS011;6773;51.192;7.024;2022-11-04T17:59:06;9.17;;;7.27;;
13404;SDS011;6773;51.192;7.024;2022-11-04T18:01:33;11.30;;;7.33;;
13404;SDS011;6773;51.192;7.024;2022-11-04T18:04:00;11.53;;;8.00;;
13404;SDS011;6773;51.192;7.024;2022-11-04T18:06:28;13.80;;;7.60;;
13404;SDS011;6773;51.192;7.024;2022-11-04T18:08:55;38.80;;;24.53;;
13404;SDS011;6773;51.192;7.024;2022-11-04T18:11:22;19.77;;;12.67;;